createdAt,value
2023-03-29T00:00:14.473Z,99027.51
2023-03-29T00:03:04.091Z,99024.48
2023-03-29T00:05:35.444Z,99017.21
2023-03-29T00:08:04.363Z,99013.92
2023-03-29T00:10:32.662Z,99016.38
2023-03-29T00:13:00.972Z,99019.44
2023-03-29T00:15:28.586Z,99020.23
2023-03-29T00:17:56.199Z,99014.67
2023-03-29T00:20:23.867Z,99017.08
2023-03-29T00:22:51.833Z,99011.15
2023-03-29T00:25:19.411Z,99011.95
2023-03-29T00:27:47.091Z,99017.52
2023-03-29T00:30:15.350Z,99013.30
2023-03-29T00:32:43.188Z,99014.35
2023-03-29T00:35:11.067Z,99019.08
2023-03-29T00:37:38.754Z,99017.01
2023-03-29T00:40:09.623Z,99014.70
2023-03-29T00:42:37.447Z,99011.14
2023-03-29T00:45:19.110Z,99009.92
2023-03-29T00:47:49.652Z,99006.80
2023-03-29T00:50:25.770Z,99003.63
2023-03-29T00:53:02.594Z,99007.05
2023-03-29T00:55:35.548Z,99011.44
2023-03-29T00:58:05.081Z,99006.02
2023-03-29T01:00:35.694Z,98996.96
2023-03-29T01:03:09.039Z,98993.95
2023-03-29T01:05:37.829Z,98992.40
2023-03-29T01:08:08.120Z,98989.45
2023-03-29T01:10:43.356Z,98986.33
2023-03-29T01:13:13.526Z,98986.60
2023-03-29T01:15:42.208Z,98988.65
2023-03-29T01:18:09.840Z,98987.56
2023-03-29T01:20:50.922Z,98987.66
2023-03-29T01:23:18.493Z,98987.83
2023-03-29T01:26:17.202Z,98979.35
2023-03-29T01:29:07.570Z,98977.20
2023-03-29T01:31:38.612Z,98977.10
2023-03-29T01:34:11.621Z,98978.39
2023-03-29T01:36:51.212Z,98978.05
2023-03-29T01:39:19.356Z,98979.91
2023-03-29T01:41:48.866Z,98975.54
2023-03-29T01:44:43.528Z,98973.06
2023-03-29T01:47:12.522Z,98973.52
2023-03-29T01:49:48.408Z,98972.64
2023-03-29T01:52:19.010Z,98972.17
2023-03-29T01:55:00.493Z,98970.63
2023-03-29T01:57:28.181Z,98969.33
2023-03-29T01:59:55.816Z,98965.80
2023-03-29T02:02:24.112Z,98970.54
2023-03-29T02:04:53.660Z,98972.79
2023-03-29T02:07:24.745Z,98971.14
2023-03-29T02:09:52.792Z,98972.63
2023-03-29T02:12:20.874Z,98972.70
2023-03-29T02:14:48.429Z,98970.85
2023-03-29T02:17:20.522Z,98973.00
2023-03-29T02:19:50.223Z,98981.88
2023-03-29T02:22:33.600Z,98979.19
2023-03-29T02:25:01.807Z,98978.38
2023-03-29T02:27:29.684Z,98978.82
2023-03-29T02:29:57.245Z,98972.92
2023-03-29T02:32:26.581Z,98972.88
2023-03-29T02:34:58.700Z,98975.90
2023-03-29T02:37:26.776Z,98977.98
2023-03-29T02:39:54.411Z,98976.70
2023-03-29T02:42:22.016Z,98981.27
2023-03-29T02:44:50.146Z,98982.36
2023-03-29T02:47:32.079Z,98979.89
2023-03-29T02:49:59.861Z,98978.55
2023-03-29T02:52:33.463Z,98979.13
2023-03-29T02:55:03.126Z,98977.77
2023-03-29T02:57:32.476Z,98976.56
2023-03-29T03:00:00.171Z,98978.19
2023-03-29T03:02:27.915Z,98977.16
2023-03-29T03:04:55.861Z,98977.06
2023-03-29T03:07:24.951Z,98979.60
2023-03-29T03:09:52.820Z,98980.75
2023-03-29T03:12:20.414Z,98984.80
2023-03-29T03:14:48.313Z,98982.63
2023-03-29T03:17:15.914Z,98978.05
2023-03-29T03:19:43.504Z,98977.34
2023-03-29T03:22:11.953Z,98977.05
2023-03-29T03:24:39.563Z,98975.58
2023-03-29T03:27:08.611Z,98971.85
2023-03-29T03:29:38.524Z,98973.18
2023-03-29T03:32:06.298Z,98973.83
2023-03-29T03:34:34.845Z,98972.71
2023-03-29T03:37:02.434Z,98973.91
2023-03-29T03:39:30.357Z,98971.79
2023-03-29T03:41:58.015Z,98967.23
2023-03-29T03:44:25.630Z,98970.49
2023-03-29T03:46:53.277Z,98969.73
2023-03-29T03:49:21.958Z,98966.74
2023-03-29T03:51:51.033Z,98964.80
2023-03-29T03:54:20.266Z,98962.64
2023-03-29T03:56:48.245Z,98963.61
2023-03-29T03:59:15.933Z,98965.96
2023-03-29T04:01:43.700Z,98969.41
2023-03-29T04:04:12.087Z,98972.38
2023-03-29T04:06:41.702Z,98970.41
2023-03-29T04:09:11.114Z,98969.30
2023-03-29T04:11:38.795Z,98970.24
2023-03-29T04:14:06.385Z,98968.01
2023-03-29T04:16:33.963Z,98967.80
2023-03-29T04:19:01.716Z,98960.46
2023-03-29T04:21:29.464Z,98960.11
2023-03-29T04:23:57.127Z,98961.81
2023-03-29T04:26:24.960Z,98955.95
2023-03-29T04:28:52.657Z,98954.56
2023-03-29T04:31:20.482Z,98951.58
2023-03-29T04:33:48.178Z,98953.79
2023-03-29T04:36:16.073Z,98954.77
2023-03-29T04:38:47.395Z,98954.95
2023-03-29T04:41:15.599Z,98955.74
2023-03-29T04:43:46.865Z,98961.69
2023-03-29T04:46:14.972Z,98958.94
2023-03-29T04:48:42.666Z,98960.59
2023-03-29T04:51:10.333Z,98959.82
2023-03-29T04:53:38.085Z,98960.19
2023-03-29T04:56:06.208Z,98961.76
2023-03-29T04:58:33.830Z,98959.73
2023-03-29T05:01:01.951Z,98956.30
2023-03-29T05:03:29.823Z,98956.21
2023-03-29T05:06:06.932Z,98956.86
2023-03-29T05:08:39.141Z,98954.83
2023-03-29T05:11:07.844Z,98953.89
2023-03-29T05:13:35.464Z,98955.98
2023-03-29T05:16:04.360Z,98957.92
2023-03-29T05:18:32.142Z,98954.28
2023-03-29T05:21:00.201Z,98953.35
2023-03-29T05:23:28.886Z,98955.09
2023-03-29T05:25:56.845Z,98952.70
2023-03-29T05:28:24.513Z,98950.25
2023-03-29T05:31:04.465Z,98951.90
2023-03-29T05:33:32.593Z,98955.62
2023-03-29T05:36:05.203Z,98954.70
2023-03-29T05:38:33.037Z,98951.63
2023-03-29T05:41:01.175Z,98954.17
2023-03-29T05:43:29.017Z,98954.54
2023-03-29T05:45:56.681Z,98950.24
2023-03-29T05:48:24.595Z,98953.23
2023-03-29T05:50:53.612Z,98960.93
2023-03-29T05:53:22.536Z,98955.29
2023-03-29T05:55:50.355Z,98956.42
2023-03-29T05:58:20.293Z,98964.30
2023-03-29T06:00:49.666Z,98967.50
2023-03-29T06:03:23.746Z,98964.44
2023-03-29T06:05:59.383Z,98966.38
2023-03-29T06:08:27.756Z,98964.67
2023-03-29T06:11:04.924Z,98958.81
2023-03-29T06:13:34.116Z,98958.20
2023-03-29T06:16:01.729Z,98958.19
2023-03-29T06:18:29.355Z,98953.33
2023-03-29T06:20:56.991Z,98954.02
2023-03-29T06:23:24.996Z,98956.84
2023-03-29T06:25:52.734Z,98956.66
2023-03-29T06:28:20.522Z,98958.71
2023-03-29T06:30:48.379Z,98954.33
2023-03-29T06:33:17.082Z,98952.35
2023-03-29T06:35:47.210Z,98951.23
2023-03-29T06:38:15.323Z,98955.38
2023-03-29T06:40:44.687Z,98951.23
2023-03-29T06:43:13.046Z,98948.45
2023-03-29T06:45:40.719Z,98954.44
2023-03-29T06:48:08.669Z,98954.54
2023-03-29T06:50:36.692Z,98953.73
2023-03-29T06:53:04.429Z,98952.53
2023-03-29T06:55:32.170Z,98948.55
2023-03-29T06:58:02.463Z,98949.75
2023-03-29T07:00:30.626Z,98953.01
2023-03-29T07:02:58.729Z,98951.54
2023-03-29T07:05:27.298Z,98949.55
2023-03-29T07:08:00.469Z,98952.40
2023-03-29T07:10:32.128Z,98952.29
2023-03-29T07:13:00.883Z,98950.27
2023-03-29T07:15:28.765Z,98946.90
2023-03-29T07:17:57.653Z,98945.54
2023-03-29T07:20:27.302Z,98954.27
2023-03-29T07:22:55.050Z,98950.89
2023-03-29T07:25:23.556Z,98947.98
2023-03-29T07:27:52.144Z,98945.70
2023-03-29T07:30:22.799Z,98941.60
2023-03-29T07:32:51.115Z,98944.05
2023-03-29T07:35:19.152Z,98942.55
2023-03-29T07:37:47.599Z,98943.52
2023-03-29T07:40:18.314Z,98943.23
2023-03-29T07:42:46.230Z,98942.91
2023-03-29T07:45:16.436Z,98942.90
2023-03-29T07:47:44.693Z,98947.09
2023-03-29T07:50:12.484Z,98946.13
2023-03-29T07:52:40.286Z,98949.31
2023-03-29T07:55:08.733Z,98947.17
2023-03-29T07:57:36.566Z,98947.67
2023-03-29T08:00:15.878Z,98948.63
2023-03-29T08:02:44.420Z,98945.71
2023-03-29T08:05:13.718Z,98948.86
2023-03-29T08:07:42.403Z,98943.94
2023-03-29T08:10:18.177Z,98940.48
2023-03-29T08:12:46.540Z,98936.19
2023-03-29T08:15:14.408Z,98936.16
2023-03-29T08:17:42.186Z,98930.61
2023-03-29T08:20:12.142Z,98934.67
2023-03-29T08:22:40.418Z,98925.19
2023-03-29T08:25:08.926Z,98927.61
2023-03-29T08:27:37.732Z,98928.11
2023-03-29T08:30:07.825Z,98925.20
2023-03-29T08:32:39.521Z,98921.23
2023-03-29T08:35:09.652Z,98922.20
2023-03-29T08:37:37.637Z,98919.22
2023-03-29T08:40:06.191Z,98915.02
2023-03-29T08:43:09.606Z,98915.09
2023-03-29T08:46:00.389Z,98913.32
2023-03-29T08:48:33.319Z,98915.21
2023-03-29T08:51:18.215Z,98915.84
2023-03-29T08:53:48.738Z,98911.08
2023-03-29T08:56:20.369Z,98907.53
2023-03-29T08:58:48.172Z,98906.15
2023-03-29T09:01:15.992Z,98899.02
2023-03-29T09:04:05.102Z,98894.25
2023-03-29T09:06:33.808Z,98891.21
2023-03-29T09:09:01.748Z,98892.67
2023-03-29T09:11:49.037Z,98887.61
2023-03-29T09:14:27.633Z,98885.70
2023-03-29T09:17:05.265Z,98886.16
2023-03-29T09:19:38.894Z,98881.25
2023-03-29T09:22:41.691Z,98884.20
2023-03-29T09:25:21.370Z,98878.32
2023-03-29T09:28:06.096Z,98878.04
2023-03-29T09:30:59.246Z,98876.91
2023-03-29T09:33:29.195Z,98870.48
2023-03-29T09:36:03.206Z,98863.33
2023-03-29T09:38:32.031Z,98861.39
2023-03-29T09:41:22.876Z,98863.98
2023-03-29T09:43:51.166Z,98859.88
2023-03-29T09:46:29.053Z,98858.10
2023-03-29T09:48:57.307Z,98858.73
2023-03-29T09:51:27.148Z,98859.35
2023-03-29T09:53:56.605Z,98858.95
2023-03-29T09:56:24.167Z,98853.45
2023-03-29T09:58:51.794Z,98854.35
2023-03-29T10:01:19.908Z,98848.65
2023-03-29T10:03:49.699Z,98847.85
2023-03-29T10:06:18.626Z,98843.59
2023-03-29T10:08:50.721Z,98849.83
2023-03-29T10:11:33.035Z,98850.77
2023-03-29T10:14:05.098Z,98849.35
2023-03-29T10:16:41.345Z,98843.80
2023-03-29T10:19:21.837Z,98837.54
2023-03-29T10:21:51.637Z,98839.41
2023-03-29T10:24:23.165Z,98837.77
2023-03-29T10:26:55.491Z,98838.98
2023-03-29T10:29:24.142Z,98835.49
2023-03-29T10:31:52.195Z,98830.17
2023-03-29T10:34:20.001Z,98823.07
2023-03-29T10:36:57.495Z,98824.02
2023-03-29T10:39:27.650Z,98817.77
2023-03-29T10:41:55.402Z,98816.38
2023-03-29T10:44:29.353Z,98807.34
2023-03-29T10:47:19.665Z,98800.95
2023-03-29T10:49:54.345Z,98797.02
2023-03-29T10:52:23.613Z,98798.98
2023-03-29T10:54:52.747Z,98791.66
2023-03-29T10:57:32.565Z,98789.55
2023-03-29T11:00:14.501Z,98781.44
2023-03-29T11:03:20.977Z,98775.59
2023-03-29T11:06:16.611Z,98771.59
2023-03-29T11:09:01.193Z,98766.15
2023-03-29T11:11:30.154Z,98768.19
2023-03-29T11:14:13.945Z,98756.21
2023-03-29T11:16:52.647Z,98754.50
2023-03-29T11:19:36.680Z,98751.20
2023-03-29T11:22:49.621Z,98750.60
2023-03-29T11:25:41.961Z,98746.19
2023-03-29T11:28:15.966Z,98743.78
2023-03-29T11:30:49.952Z,98743.35
2023-03-29T11:33:17.678Z,98736.88
2023-03-29T11:35:51.917Z,98728.41
2023-03-29T11:38:43.996Z,98728.20
2023-03-29T11:41:20.591Z,98724.92
2023-03-29T11:44:11.976Z,98724.27
2023-03-29T11:46:42.762Z,98723.58
2023-03-29T11:49:23.445Z,98717.48
2023-03-29T11:52:04.526Z,98710.15
2023-03-29T11:55:03.674Z,98705.08
2023-03-29T11:57:32.146Z,98706.23
2023-03-29T12:00:09.820Z,98705.39
2023-03-29T12:02:50.724Z,98698.67
2023-03-29T12:05:32.405Z,98697.46
2023-03-29T12:08:13.784Z,98693.01
2023-03-29T12:10:44.195Z,98688.46
2023-03-29T12:13:17.238Z,98685.23
2023-03-29T12:15:48.353Z,98681.96
2023-03-29T12:18:22.319Z,98684.68
2023-03-29T12:20:53.597Z,98681.64
2023-03-29T12:23:21.532Z,98684.03
2023-03-29T12:26:04.664Z,98679.35
2023-03-29T12:29:07.364Z,98671.51
2023-03-29T12:31:44.831Z,98679.59
2023-03-29T12:34:50.319Z,98670.45
2023-03-29T12:37:27.310Z,98672.21
2023-03-29T12:40:15.671Z,98669.55
2023-03-29T12:42:58.723Z,98661.45
2023-03-29T12:45:39.207Z,98655.65
2023-03-29T12:48:07.487Z,98650.23
2023-03-29T12:50:45.990Z,98651.99
2023-03-29T12:53:36.102Z,98645.16
2023-03-29T12:56:04.382Z,98639.56
2023-03-29T12:58:53.659Z,98635.58
2023-03-29T13:01:23.653Z,98635.64
2023-03-29T13:04:00.589Z,98631.45
2023-03-29T13:06:32.921Z,98633.56
2023-03-29T13:09:30.781Z,98624.97
2023-03-29T13:12:10.828Z,98624.80
2023-03-29T13:14:43.174Z,98624.27
2023-03-29T13:17:24.906Z,98623.89
2023-03-29T13:20:03.924Z,98627.55
2023-03-29T13:22:53.835Z,98623.47
2023-03-29T13:25:32.141Z,98618.32
2023-03-29T13:28:06.123Z,98616.37
2023-03-29T13:30:52.918Z,98617.39
2023-03-29T13:33:52.661Z,98619.84
2023-03-29T13:36:27.494Z,98621.73
2023-03-29T13:38:55.560Z,98617.15
2023-03-29T13:41:32.352Z,98614.50
2023-03-29T13:44:00.481Z,98603.60
2023-03-29T13:46:40.989Z,98600.98
2023-03-29T13:49:23.922Z,98597.67
2023-03-29T13:51:54.755Z,98586.52
2023-03-29T13:54:32.339Z,98577.48
2023-03-29T13:57:11.223Z,98575.96
2023-03-29T13:59:47.854Z,98574.58
2023-03-29T14:02:22.851Z,98570.15
2023-03-29T14:04:51.371Z,98574.27
2023-03-29T14:07:20.326Z,98569.61
2023-03-29T14:09:49.824Z,98562.27
2023-03-29T14:12:17.666Z,98554.73
2023-03-29T14:14:55.990Z,98562.82
2023-03-29T14:17:26.871Z,98561.30
2023-03-29T14:19:57.925Z,98565.15
2023-03-29T14:22:30.382Z,98560.02
2023-03-29T14:25:01.488Z,98559.55
2023-03-29T14:27:31.023Z,98567.45
2023-03-29T14:29:59.036Z,98560.54
2023-03-29T14:32:31.009Z,98551.96
2023-03-29T14:35:00.150Z,98557.42
2023-03-29T14:37:29.043Z,98552.90
2023-03-29T14:39:57.018Z,98557.32
2023-03-29T14:42:26.737Z,98548.73
2023-03-29T14:45:01.671Z,98548.20
2023-03-29T14:47:30.732Z,98543.64
2023-03-29T14:50:00.918Z,98548.02
2023-03-29T14:52:29.214Z,98543.64
2023-03-29T14:55:01.959Z,98537.32
2023-03-29T14:57:34.186Z,98532.23
2023-03-29T15:00:08.975Z,98526.10
2023-03-29T15:02:36.869Z,98523.81
2023-03-29T15:05:07.649Z,98517.51
2023-03-29T15:07:36.527Z,98512.77
2023-03-29T15:10:05.569Z,98511.17
2023-03-29T15:12:33.353Z,98510.98
2023-03-29T15:15:00.997Z,98515.73
2023-03-29T15:17:49.533Z,98514.67
2023-03-29T15:20:24.372Z,98515.37
2023-03-29T15:22:53.010Z,98512.54
2023-03-29T15:25:20.960Z,98513.23
2023-03-29T15:27:57.557Z,98508.84
2023-03-29T15:30:36.688Z,98498.67
2023-03-29T15:33:15.339Z,98499.40
2023-03-29T15:35:43.573Z,98497.67
2023-03-29T15:38:12.646Z,98500.30
2023-03-29T15:40:40.491Z,98500.31
2023-03-29T15:43:08.169Z,98498.92
2023-03-29T15:45:36.153Z,98498.88
2023-03-29T15:48:13.177Z,98499.55
2023-03-29T15:50:40.828Z,98497.61
2023-03-29T15:53:15.047Z,98491.25
2023-03-29T15:55:45.398Z,98494.36
2023-03-29T15:58:16.889Z,98484.48
2023-03-29T16:00:47.862Z,98490.40
2023-03-29T16:03:16.274Z,98487.73
2023-03-29T16:05:44.430Z,98490.29
2023-03-29T16:08:12.717Z,98489.45
2023-03-29T16:10:41.239Z,98485.31
2023-03-29T16:13:10.978Z,98485.54
2023-03-29T16:15:38.732Z,98490.29
2023-03-29T16:18:06.429Z,98485.05
2023-03-29T16:20:34.345Z,98484.17
2023-03-29T16:23:08.903Z,98482.79
2023-03-29T16:25:38.409Z,98479.80
2023-03-29T16:28:07.872Z,98475.64
2023-03-29T16:30:36.213Z,98480.05
2023-03-29T16:33:08.115Z,98482.32
2023-03-29T16:35:37.973Z,98484.11
2023-03-29T16:38:06.442Z,98488.84
2023-03-29T16:40:34.742Z,98483.43
2023-03-29T16:43:03.312Z,98484.97
2023-03-29T16:45:31.062Z,98488.64
2023-03-29T16:47:58.733Z,98490.04
2023-03-29T16:50:26.581Z,98491.26
2023-03-29T16:52:54.550Z,98487.24
2023-03-29T16:55:22.225Z,98494.19
2023-03-29T16:57:51.052Z,98499.21
2023-03-29T17:00:20.289Z,98499.02
2023-03-29T17:02:51.016Z,98497.27
2023-03-29T17:05:19.037Z,98496.58
2023-03-29T17:07:46.962Z,98496.92
2023-03-29T17:10:14.595Z,98501.09
2023-03-29T17:12:42.635Z,98502.48
2023-03-29T17:15:10.496Z,98499.15
2023-03-29T17:17:38.272Z,98499.63
2023-03-29T17:20:08.587Z,98506.91
2023-03-29T17:22:36.583Z,98507.23
2023-03-29T17:25:07.200Z,98504.23
2023-03-29T17:27:35.659Z,98499.69
2023-03-29T17:30:05.140Z,98504.55
2023-03-29T17:32:32.798Z,98513.42
2023-03-29T17:35:00.816Z,98512.58
2023-03-29T17:37:28.928Z,98519.38
2023-03-29T17:39:56.711Z,98519.40
2023-03-29T17:42:24.713Z,98525.64
2023-03-29T17:44:52.677Z,98522.52
2023-03-29T17:47:20.573Z,98525.14
2023-03-29T17:49:48.446Z,98524.45
2023-03-29T17:52:16.292Z,98520.45
2023-03-29T17:54:44.192Z,98521.54
2023-03-29T17:57:12.372Z,98523.29
2023-03-29T17:59:40.446Z,98519.84
2023-03-29T18:02:14.340Z,98527.82
2023-03-29T18:04:42.628Z,98531.69
2023-03-29T18:07:10.723Z,98532.08
2023-03-29T18:09:39.345Z,98534.04
2023-03-29T18:12:08.558Z,98535.46
2023-03-29T18:14:36.732Z,98535.83
2023-03-29T18:17:05.202Z,98530.48
2023-03-29T18:19:33.515Z,98533.13
2023-03-29T18:22:01.788Z,98538.38
2023-03-29T18:24:30.688Z,98533.71
2023-03-29T18:26:59.071Z,98533.57
2023-03-29T18:29:27.193Z,98531.02
2023-03-29T18:31:55.209Z,98529.48
2023-03-29T18:34:23.005Z,98528.66
2023-03-29T18:36:50.673Z,98523.17
2023-03-29T18:39:18.816Z,98521.63
2023-03-29T18:41:46.665Z,98519.41
2023-03-29T18:44:17.774Z,98516.80
2023-03-29T18:46:45.533Z,98518.38
2023-03-29T18:49:13.449Z,98520.48
2023-03-29T18:51:42.186Z,98524.31
2023-03-29T18:54:09.964Z,98521.73
2023-03-29T18:56:37.805Z,98522.29
2023-03-29T18:59:06.390Z,98520.11
2023-03-29T19:01:34.746Z,98524.30
2023-03-29T19:04:02.648Z,98526.39
2023-03-29T19:06:30.491Z,98524.84
2023-03-29T19:09:02.353Z,98527.30
2023-03-29T19:11:30.586Z,98532.02
2023-03-29T19:13:58.195Z,98532.60
2023-03-29T19:16:27.565Z,98536.66
2023-03-29T19:18:55.417Z,98537.76
2023-03-29T19:21:23.009Z,98537.84
2023-03-29T19:23:53.175Z,98535.61
2023-03-29T19:26:21.732Z,98539.10
2023-03-29T19:28:49.438Z,98534.29
2023-03-29T19:31:17.123Z,98534.52
2023-03-29T19:33:45.977Z,98542.39
2023-03-29T19:36:13.668Z,98536.02
2023-03-29T19:38:41.910Z,98528.82
2023-03-29T19:41:09.498Z,98528.19
2023-03-29T19:43:37.093Z,98526.32
2023-03-29T19:46:07.342Z,98521.53
2023-03-29T19:48:34.981Z,98526.09
2023-03-29T19:51:03.382Z,98531.02
2023-03-29T19:53:31.840Z,98534.54
2023-03-29T19:55:59.705Z,98528.06
2023-03-29T19:58:27.659Z,98520.69
2023-03-29T20:00:58.246Z,98514.35
2023-03-29T20:03:28.269Z,98506.81
2023-03-29T20:05:56.612Z,98501.33
2023-03-29T20:08:24.832Z,98503.30
2023-03-29T20:11:04.958Z,98509.42
2023-03-29T20:13:38.582Z,98505.88
2023-03-29T20:16:14.461Z,98505.43
2023-03-29T20:18:44.832Z,98501.35
2023-03-29T20:21:16.789Z,98506.45
2023-03-29T20:23:44.889Z,98502.02
2023-03-29T20:26:12.517Z,98507.64
2023-03-29T20:28:40.266Z,98503.22
2023-03-29T20:31:10.535Z,98503.66
2023-03-29T20:33:39.116Z,98499.61
2023-03-29T20:36:08.500Z,98502.27
2023-03-29T20:38:36.330Z,98504.41
2023-03-29T20:41:05.136Z,98503.63
2023-03-29T20:43:37.778Z,98506.66
2023-03-29T20:46:14.444Z,98506.26
2023-03-29T20:48:54.512Z,98507.02
2023-03-29T20:51:28.083Z,98508.20
2023-03-29T20:54:05.116Z,98508.73
2023-03-29T20:56:39.017Z,98498.88
2023-03-29T20:59:07.195Z,98490.77
2023-03-29T21:01:35.134Z,98490.30
2023-03-29T21:04:03.059Z,98487.26
2023-03-29T21:06:31.652Z,98486.79
2023-03-29T21:08:59.236Z,98483.54
2023-03-29T21:11:27.819Z,98477.17
2023-03-29T21:13:55.443Z,98477.89
2023-03-29T21:16:25.377Z,98480.51
2023-03-29T21:18:53.289Z,98478.52
2023-03-29T21:21:22.725Z,98467.66
2023-03-29T21:23:50.596Z,98464.06
2023-03-29T21:26:18.390Z,98463.27
2023-03-29T21:28:48.555Z,98460.91
2023-03-29T21:31:16.449Z,98466.17
2023-03-29T21:33:44.179Z,98461.93
2023-03-29T21:36:12.405Z,98456.80
2023-03-29T21:38:40.485Z,98459.35
2023-03-29T21:41:12.091Z,98454.19
2023-03-29T21:43:40.073Z,98454.96
2023-03-29T21:46:08.005Z,98455.73
2023-03-29T21:48:36.359Z,98456.29
2023-03-29T21:51:04.583Z,98453.20
2023-03-29T21:53:32.408Z,98449.85
2023-03-29T21:56:00.373Z,98445.09
2023-03-29T21:58:28.273Z,98445.53
2023-03-29T22:00:56.718Z,98448.37
2023-03-29T22:03:24.395Z,98443.75
2023-03-29T22:05:59.545Z,98447.29
2023-03-29T22:08:27.184Z,98445.25
2023-03-29T22:10:58.027Z,98444.94
2023-03-29T22:13:27.508Z,98437.05
2023-03-29T22:15:59.419Z,98434.66
2023-03-29T22:18:28.049Z,98428.80
2023-03-29T22:20:56.661Z,98428.15
2023-03-29T22:23:24.939Z,98421.42
2023-03-29T22:25:52.674Z,98421.82
2023-03-29T22:28:20.521Z,98422.52
2023-03-29T22:30:48.086Z,98421.67
2023-03-29T22:33:15.958Z,98418.41
2023-03-29T22:35:43.567Z,98426.58
2023-03-29T22:38:11.194Z,98420.52
2023-03-29T22:40:40.770Z,98421.57
2023-03-29T22:43:08.342Z,98418.64
2023-03-29T22:45:36.343Z,98416.59
2023-03-29T22:48:04.129Z,98417.12
2023-03-29T22:50:31.701Z,98416.13
2023-03-29T22:52:59.291Z,98413.72
2023-03-29T22:55:27.065Z,98411.00
2023-03-29T22:57:54.639Z,98411.04
2023-03-29T23:00:22.466Z,98408.67
2023-03-29T23:02:50.027Z,98411.48
2023-03-29T23:05:17.633Z,98412.52
2023-03-29T23:07:45.467Z,98416.00
2023-03-29T23:10:13.046Z,98415.88
2023-03-29T23:12:42.947Z,98413.84
2023-03-29T23:15:11.513Z,98413.33
2023-03-29T23:17:39.161Z,98405.23
2023-03-29T23:20:08.794Z,98400.58
2023-03-29T23:22:36.655Z,98397.84
2023-03-29T23:25:04.434Z,98399.97
2023-03-29T23:27:32.850Z,98397.39
2023-03-29T23:30:01.606Z,98401.55
2023-03-29T23:32:29.273Z,98401.22
2023-03-29T23:34:56.964Z,98395.33
2023-03-29T23:37:24.974Z,98392.92
2023-03-29T23:39:52.741Z,98394.14
2023-03-29T23:42:21.143Z,98388.93
2023-03-29T23:44:48.840Z,98389.30
2023-03-29T23:47:16.669Z,98389.49
2023-03-29T23:49:45.405Z,98386.73
2023-03-29T23:52:13.236Z,98382.05
2023-03-29T23:54:40.845Z,98384.83
2023-03-29T23:57:08.420Z,98388.45
2023-03-29T23:59:37.916Z,98388.96
